Airfield :
LOGIN :

Register | Disclaimer

   EN    FR    IT 

 










Legend :    VFR   Marginal VFR   IFR   Intensive IFR   Very Intensive IFR
Visi :
Ceiling :
>= 8 km
>= 3000ft
5 to 8 km
1000 to 3000 ft
1500m to 5 km
500 to 1000 ft
800 to 1500m
200 to 500 ft
< 800m
< 200 ft
Symbols :   Thunderstorms  Fog  Heavy snow  Heavy precipitations  Wind > 20 kt
SIGMETs :     Misc.  Thunderstorms  Icing  Turbulence  Mountain Waves  Volcanic Ashes






- Airport Elevation : 257 ft
- IATA code : MAN


EGCC - Manchester

CURRENT METAR :
  • 091950Z 15002KT 7000 OVC004 00/M00 Q1008

EXPIRED METARs :
  • 091920Z AUTO VRB02KT 8000 OVC003 00/M00 Q1008
  • 090450Z AUTO 27002KT 7000 NCD M05/M06 Q1009 TEMPO 4000 BR
  • 091850Z AUTO VRB01KT 9000 BKN004 OVC016 00/M00 Q1008
  • 091820Z AUTO VRB02KT 9999 BKN004 OVC015 00/M00 Q1008
  • 091750Z AUTO VRB02KT 9000 FEW006 OVC014 00/M00 Q1008 TEMPO BKN012
  • 091720Z AUTO 15003KT 8000 OVC011 M00/M00 Q1008 TEMPO BKN008

TAF AMD TAF EGCC
Valid from the 09 at 15:00 until the 10 at 18:00 UTC


091507Z 0915/1018 20004KT 9999 SCT020
TEMPO 0915/0921 7000 SHRA BKN004
PROB30
TEMPO 0915/0921 4000 SHRASN -SHSN
PROB30
TEMPO 0921/1005 6000 -SHRASN BKN008
TEMPO 1005/1008 6000 SHRA BKN012
PROB40
TEMPO 1005/1008 3000 SHSNRA -SHSN BKN005
PROB30
TEMPO 1016/1018 8000
ATIS : +44 161 499 2324



MET'MAP, your aeronautical weather chart ! - Copyright ORBIFLY December 2007 - Disclaimer

ORBIFLY MET'MAP TEAM :

Programming & Development : Alexandra Zaïnal
Original concept : Baudouin d'Aumeries
Technical & hardware support : Manuel Goepfert
Assistance : Marc-Olivier Méhu




SOURCES & CREDITS :

   NOAA